Gorna Oryahovitsa Airport


Codes: LBGO/GOZ
Name: Gorna Oryahovitsa Airport
City: Gorna Oryahovitsa
Country: Bulgaria
Elevation: 285 ft.

Photos at Gorna Oryahovitsa Airport


   Photos courtesy of SpottingLog. You can add your own sightings and photos by signing up for a free trial today.



No photos found.

Weather at Gorna Oryahovitsa Airport


Time (UTC)DescriptionTempratureWindCloud coverageVisibilityPressureHumidity
25-Jun-2024 15:00Scattered Clouds33°C13 mph, E43%10000m1013hPa34%
25-Jun-2024 18:00Broken Clouds29°C7 mph, E54%10000m1013hPa47%
25-Jun-2024 21:00Scattered Clouds22°C4 mph, SE49%10000m1015hPa71%
26-Jun-2024 00:00Broken Clouds20°C4 mph, SE74%10000m1015hPa80%
26-Jun-2024 03:00Overcast Clouds19°C4 mph, SE93%10000m1016hPa78%
26-Jun-2024 06:00Overcast Clouds25°C4 mph, E97%10000m1016hPa52%
26-Jun-2024 09:00Broken Clouds31°C7 mph, NE67%10000m1015hPa38%
26-Jun-2024 12:00Broken Clouds33°C11 mph, NE77%10000m1014hPa33%
26-Jun-2024 15:00Overcast Clouds32°C7 mph, E95%10000m1013hPa35%
26-Jun-2024 18:00Broken Clouds26°C7 mph, E58%10000m1012hPa47%
26-Jun-2024 21:00Light Rain21°C4 mph, SE22%10000m1014hPa71%
27-Jun-2024 00:00Light Rain18°C2 mph, SE60%10000m1014hPa89%
27-Jun-2024 03:00Light Rain17°C4 mph, SE96%10000m1013hPa91%
27-Jun-2024 06:00Overcast Clouds23°C4 mph, E98%10000m1013hPa67%
27-Jun-2024 09:00Scattered Clouds30°C4 mph, E27%10000m1012hPa37%
27-Jun-2024 12:00Few Clouds34°C4 mph, NE16%10000m1010hPa30%
27-Jun-2024 15:00Light Rain31°C9 mph, NE47%10000m1009hPa39%
27-Jun-2024 18:00Light Rain22°C9 mph, E67%10000m1011hPa69%
27-Jun-2024 21:00Light Rain18°C4 mph, SW90%10000m1014hPa85%
28-Jun-2024 00:00Broken Clouds17°C4 mph, SE83%10000m1013hPa88%
28-Jun-2024 03:00Scattered Clouds16°C2 mph, SE40%10000m1014hPa80%
28-Jun-2024 06:00Broken Clouds22°C2 mph, E68%10000m1015hPa54%
28-Jun-2024 09:00Overcast Clouds29°C2 mph, W98%10000m1014hPa28%
28-Jun-2024 12:00Overcast Clouds32°C2 mph, N98%10000m1013hPa23%
28-Jun-2024 15:00Overcast Clouds32°C7 mph, NW100%10000m1012hPa24%
28-Jun-2024 18:00Overcast Clouds25°C4 mph, W98%10000m1014hPa43%
28-Jun-2024 21:00Scattered Clouds21°C2 mph, SW47%10000m1016hPa60%
29-Jun-2024 00:00Scattered Clouds20°C2 mph, SW49%10000m1017hPa68%
29-Jun-2024 03:00Clear Sky18°C2 mph, S2%10000m1017hPa82%
29-Jun-2024 06:00Clear Sky25°C0 mph, NW2%10000m1018hPa51%
29-Jun-2024 09:00Clear Sky31°C7 mph, N0%10000m1017hPa27%
29-Jun-2024 12:00Clear Sky34°C11 mph, NE2%10000m1015hPa19%
29-Jun-2024 15:00Clear Sky34°C11 mph, NE2%10000m1013hPa19%
29-Jun-2024 18:00Clear Sky26°C4 mph, NE4%10000m1013hPa30%
29-Jun-2024 21:00Clear Sky21°C4 mph, SE8%10000m1016hPa54%
30-Jun-2024 00:00Clear Sky19°C4 mph, SE5%10000m1015hPa59%
30-Jun-2024 03:00Clear Sky18°C4 mph, SE10%10000m1015hPa62%
30-Jun-2024 06:00Clear Sky26°C4 mph, E7%10000m1015hPa39%
30-Jun-2024 09:00Scattered Clouds32°C7 mph, E45%10000m1014hPa21%
30-Jun-2024 12:00Scattered Clouds35°C9 mph, E34%10000m1012hPa18%